Flight Track Log - Related Links

Times and Time Zones

All times are in EDT time to prevent confusion due to time zone crossing. See the VH-NCA flight status page for this flight to view local times or setup timezone preferences in your user account.

Time Position Orientation Groundspeed Altitude Reporting Facility
EDT Latitude Longitude Course Direction KTS MPH feet Rate Location/Type
Wed 06:07:53 AM -32.7651 151.3431 64° Northeast 84 97 1,100  Level Aus ATC (RADAR)
Wed 06:08:53 AM -32.7568 151.3636 64° Northeast 83 96 1,800 660 Climbing Aus ATC (RADAR)
Wed 06:09:33 AM -32.7766 151.3639 179° South 102 117 2,200 675 Climbing Aus ATC (RADAR)
Wed 06:10:13 AM -32.7922 151.3569 201° Southwest 96 110 2,700 706 Climbing Aus ATC (RADAR)
Wed 06:10:58 AM -32.8078 151.3438 215° Southwest 91 105 3,200 571 Climbing Aus ATC (RADAR)
Wed 06:11:58 AM -32.7806 151.3326 341° North 105 121 3,700 540 Climbing Aus ATC (RADAR)
Wed 06:12:38 AM -32.7692 151.3430 37° Northeast 82 94 4,100 560 Climbing Aus ATC (RADAR)
Wed 06:13:13 AM -32.7912 151.3524 160° South 128 147 4,400 514 Climbing Aus ATC (RADAR)
Wed 06:13:48 AM -32.8066 151.3395 215° Southwest 121 139 4,700 462 Climbing Aus ATC (RADAR)
Wed 06:14:18 AM -32.8166 151.3261 228° Southwest 109 125 4,900 462 Climbing Aus ATC (RADAR)
Wed 06:14:53 AM -32.8328 151.3168 206° Southwest 109 125 5,200 607 Climbing Aus ATC (RADAR)
Wed 06:15:47 AM -32.8576 151.3014 207° Southwest 107 123 5,800 421 Climbing Aus ATC (RADAR)
Wed 06:16:47 AM -32.8849 151.2811 212° Southwest 124 143 6,000 120 Climbing Aus ATC (RADAR)
Wed 06:17:27 AM -32.9072 151.2652 211° Southwest 137 158 6,000 80 Level Aus ATC (RADAR)
Wed 06:18:02 AM -32.9278 151.2541 204° Southwest 139 160 6,100  Climbing Aus ATC (RADAR)
Wed 06:18:37 AM -32.9467 151.2400 212° Southwest 136 157 6,000  Descending Aus ATC (RADAR)
Wed 06:19:12 AM -32.9663 151.2273 209° Southwest 135 155 6,100 86 Climbing Aus ATC (RADAR)
Wed 06:19:47 AM -32.9851 151.2137 211° Southwest 134 154 6,100 -67 Level Aus ATC (RADAR)
Wed 06:20:42 AM -33.0155 151.1914 212° Southwest 140 161 6,000 -57 Descending Aus ATC (RADAR)
Wed 06:21:32 AM -33.0429 151.1724 210° Southwest 136 157 6,000  Level Aus ATC (RADAR)
Wed 06:22:17 AM -33.0681 151.1558 209° Southwest 138 159 6,000  Level Aus ATC (RADAR)
Wed 06:22:52 AM -33.0877 151.1432 208° Southwest 136 157 6,000  Level Aus ATC (RADAR)
Wed 06:23:27 AM -33.1089 151.1320 204° Southwest 141 162 6,000  Level Aus ATC (RADAR)
Wed 06:23:57 AM -33.1248 151.1207 211° Southwest 134 154 6,000  Level Aus ATC (RADAR)
Wed 06:24:32 AM -33.1437 151.1069 211° Southwest 133 153 6,000  Level Aus ATC (RADAR)
Wed 06:25:22 AM -33.1729 151.0899 206° Southwest 138 159 6,000  Level Aus ATC (RADAR)
Wed 06:26:32 AM -33.2113 151.0619 211° Southwest 138 159 6,000  Level Aus ATC (RADAR)
Wed 06:27:06 AM -33.2300 151.0474 213° Southwest 136 157 6,000  Level Aus ATC (RADAR)
Wed 06:27:41 AM -33.2486 151.0327 213° Southwest 137 158 6,000  Level Aus ATC (RADAR)
Wed 06:28:26 AM -33.2724 151.0136 214° Southwest 135 155 6,000  Level Aus ATC (RADAR)
Wed 06:29:26 AM -33.3041 150.9889 213° Southwest 134 154 6,000  Level Aus ATC (RADAR)
Wed 06:30:06 AM -33.3248 150.9725 214° Southwest 134 154 6,000  Level Aus ATC (RADAR)
Wed 06:30:46 AM -33.3461 150.9567 212° Southwest 134 154 6,000  Level Aus ATC (RADAR)
Wed 06:31:41 AM -33.3751 150.9344 213° Southwest 133 153 6,000  Level Aus ATC (RADAR)
Wed 06:32:16 AM -33.3944 150.9201 212° Southwest 137 158 6,000  Level Aus ATC (RADAR)
Wed 06:32:51 AM -33.4125 150.9058 213° Southwest 134 154 6,000  Level Aus ATC (RADAR)
Wed 06:33:26 AM -33.4319 150.8911 212° Southwest 140 161 6,000 -80 Level Aus ATC (RADAR)
Wed 06:34:06 AM -33.4544 150.8760 209° Southwest 143 165 5,900 -375 Descending Aus ATC (RADAR)
Wed 06:34:46 AM -33.4803 150.8630 203° Southwest 148 170 5,500 -519 Descending Aus ATC (RADAR)
Wed 06:35:50 AM -33.5164 150.8349 213° Southwest 143 165 5,000 -495 Descending Aus ATC (RADAR)
Wed 06:36:35 AM -33.5420 150.8158 212° Southwest 143 165 4,600 -525 Descending Aus ATC (RADAR)
Wed 06:37:10 AM -33.5616 150.8002 214° Southwest 144 166 4,300 -514 Descending Aus ATC (RADAR)
Wed 06:37:45 AM -33.5822 150.7862 210° Southwest 144 166 4,000 -462 Descending Aus ATC (RADAR)
Wed 06:38:15 AM -33.5990 150.7735 212° Southwest 145 167 3,800 -462 Descending Aus ATC (RADAR)
Wed 06:38:50 AM -33.6232 150.7742 179° South 148 170 3,500 -429 Descending Aus ATC (RADAR)
Wed 06:39:25 AM -33.6458 150.7795 169° South 144 166 3,300 -343 Descending Aus ATC (RADAR)
Wed 06:40:00 AM -33.6684 150.7823 174° South 140 161 3,100 -257 Descending Aus ATC (RADAR)
Wed 06:40:35 AM -33.6910 150.7860 172° South 135 155 3,000 -300 Descending Aus ATC (RADAR)
Wed 06:41:20 AM -33.7190 150.7907 172° South 132 152 2,700 -300 Descending Aus ATC (RADAR)
Wed 06:42:15 AM -33.7529 150.7951 174° South 131 151 2,500 -60 Descending Aus ATC (RADAR)
Wed 06:43:00 AM -33.7788 150.7979 175° South 121 139 2,600 75 Climbing Aus ATC (RADAR)
Wed 06:43:35 AM -33.7977 150.8007 173° South 115 132 2,600  Level Aus ATC (RADAR)
Wed 06:44:09 AM -33.8163 150.8039 172° South 115 132 2,600  Level Aus ATC (RADAR)
Wed 06:44:39 AM -33.8307 150.8116 156° South 112 129 2,600  Level Aus ATC (RADAR)
Wed 06:45:14 AM -33.8432 150.8284 132° Southeast 113 130 2,600 -80 Level Aus ATC (RADAR)
Wed 06:45:54 AM -33.8577 150.8452 136° Southeast 105 121 2,500 -320 Descending Aus ATC (RADAR)
Wed 06:46:29 AM -33.8682 150.8640 124° Southeast 113 130 2,200 -686 Descending Aus ATC (RADAR)
Wed 06:47:04 AM -33.8762 150.8857 114° Southeast 117 135 1,700 -771 Descending Aus ATC (RADAR)
Wed 06:47:39 AM -33.8851 150.9066 117° Southeast 116 133 1,300 -554 Descending Aus ATC (RADAR)
Wed 06:48:09 AM -33.8923 150.9238 117° Southeast 113 130 1,100 -462 Descending Aus ATC (RADAR)
Wed 06:48:44 AM -33.9011 150.9434 118° Southeast 111 128 800 -514 Descending Aus ATC (RADAR)
Wed 06:49:19 AM -33.9079 150.9591 118° Southeast 87 100 500 -514 Descending Aus ATC (RADAR)
Wed 06:49:54 AM -33.9135 150.9717 118° Southeast 73 84 200 -514 Descending Aus ATC (RADAR)

Login

Don't have an account? Register now (free) for customized features, flight alerts, and more!